Time;durP1;ratioP1;P1;durP2;ratioP2;P2;SDS_P1;SDS_P2;PMS_P1;PMS_P2;Temp;Humidity;BMP_temperature;BMP_pressure;BME280_temperature;BME280_humidity;BME280_pressure;Samples;Min_cycle;Max_cycle;Signal;HPM_P1;HPM_P2
2021/08/05 00:07:32;;;;;;;7.47;3.95;;;;;;;17.15;73.09;100220.84;21471327;80;99328;-80
2021/08/05 00:37:33;;;;;;;10.65;5.40;;;;;;;16.60;74.44;100206.74;21496640;79;99576;-81
2021/08/05 01:07:42;;;;;;;;;;;;;;;16.11;76.12;100199.17;21506965;79;99416;-80
2021/08/05 01:37:44;;;;;;;9.53;5.23;;;;;;;15.70;79.95;100184.70;21546743;79;85657;-80
2021/08/05 02:08:04;;;;;;;8.77;6.07;;;;;;;15.45;80.40;100164.81;21558898;79;99534;-80
2021/08/05 02:38:05;;;;;;;11.97;7.78;;;;;;;15.44;81.64;100170.98;21525199;79;99412;-80
2021/08/05 03:08:07;;;;;;;16.10;10.05;;;;;;;15.43;82.03;100158.91;21566272;79;99549;-80
2021/08/05 03:38:07;;;;;;;14.17;8.80;;;;;;;15.52;83.48;100153.03;21557973;79;99547;-80
2021/08/05 04:08:08;;;;;;;;;;;;;;;15.80;83.12;100141.53;21577433;78;99890;-81
2021/08/05 04:38:10;;;;;;;12.87;9.50;;;;;;;16.15;84.40;100127.72;21456741;80;85454;-80
2021/08/05 05:08:20;;;;;;;15.17;8.33;;;;;;;16.30;83.10;100121.50;21350292;80;99818;-81
2021/08/05 05:38:21;;;;;;;13.07;7.50;;;;;;;16.66;82.87;100108.59;21347849;81;99456;-81
2021/08/05 06:08:22;;;;;;;11.50;6.60;;;;;;;17.97;81.86;100131.05;21327945;81;99685;-82
2021/08/05 06:38:22;;;;;;;14.50;8.47;;;;;;;19.04;78.47;100121.13;21375652;81;99528;-83
2021/08/05 07:08:24;;;;;;;22.47;7.20;;;;;;;21.53;73.81;100105.84;21272690;81;119111;-81
2021/08/05 07:38:25;;;;;;;7.35;4.50;;;;;;;22.34;66.02;100094.96;21753840;79;99833;-82
2021/08/05 08:08:25;;;;;;;8.43;5.03;;;;;;;22.48;60.49;100095.17;22047690;78;99469;-81
2021/08/05 08:38:26;;;;;;;8.20;5.90;;;;;;;22.80;58.96;100062.30;22118578;78;99563;-82
2021/08/05 09:08:27;;;;;;;7.28;4.70;;;;;;;23.83;57.83;100055.66;22153483;78;99588;-82
2021/08/05 09:38:28;;;;;;;6.33;3.95;;;;;;;25.25;55.46;100039.45;22103420;78;99570;-82
2021/08/05 10:08:37;;;;;;;4.57;2.93;;;;;;;27.55;51.12;100020.51;22051368;77;99427;-83
2021/08/05 10:38:38;;;;;;;5.50;2.40;;;;;;;28.39;46.63;100012.05;22081684;78;99784;-81
2021/08/05 11:08:39;;;;;;;7.07;4.30;;;;;;;28.00;44.59;99977.11;22079436;78;99748;-82
2021/08/05 11:39:03;;;;;;;5.42;3.30;;;;;;;27.45;45.40;99941.41;22004754;78;99532;-82
2021/08/05 12:09:14;;;;;;;6.60;2.60;;;;;;;27.52;43.88;99928.21;22006789;77;99070;-82
2021/08/05 12:39:25;;;;;;;6.78;2.80;;;;;;;27.02;43.36;99902.28;22005533;78;99073;-83
2021/08/05 13:09:27;;;;;;;5.25;2.87;;;;;;;25.74;42.37;99852.81;21998175;78;99367;-82
2021/08/05 13:39:48;;;;;;;4.42;2.15;;;;;;;25.79;40.82;99819.69;22021263;77;99119;-82
2021/08/05 14:09:49;;;;;;;5.72;1.90;;;;;;;25.79;40.82;99819.69;21976437;78;99438;-81
2021/08/05 14:39:50;;;;;;;6.40;2.30;;;;;;;25.92;40.45;99789.72;21810784;77;99753;-83
2021/08/05 15:09:50;;;;;;;5.47;2.02;;;;;;;25.37;42.49;99767.28;21867755;78;99168;-82
2021/08/05 15:39:51;;;;;;;6.20;3.47;;;;;;;24.53;44.62;99778.42;21938627;78;99030;-81
2021/08/05 16:09:52;;;;;;;6.20;4.17;;;;;;;22.33;56.65;99777.34;21965947;78;99557;-81
2021/08/05 16:39:53;;;;;;;6.80;3.20;;;;;;;21.89;58.20;99770.59;21916931;78;99046;-81
2021/08/05 17:09:54;;;;;;;7.47;2.72;;;;;;;21.04;60.12;99780.33;21833035;77;99364;-82
2021/08/05 17:39:54;;;;;;;8.83;3.35;;;;;;;20.21;62.95;99769.26;21917709;79;99065;-82
2021/08/05 18:09:55;;;;;;;5.50;2.70;;;;;;;19.67;65.43;99762.53;21735736;78;99500;-82
2021/08/05 18:39:59;;;;;;;8.65;4.20;;;;;;;19.35;66.14;99761.48;22027305;78;98990;-82
2021/08/05 19:10:00;;;;;;;8.80;3.33;;;;;;;19.08;67.92;99741.67;22017215;78;99399;-80
2021/08/05 19:40:01;;;;;;;6.55;3.52;;;;;;;18.78;68.51;99726.95;21960332;78;99048;-81
2021/08/05 20:10:04;;;;;;;10.93;5.33;;;;;;;18.58;69.85;99718.08;21962540;78;99062;-81
2021/08/05 20:40:07;;;;;;;8.73;5.12;;;;;;;18.33;70.97;99686.84;21826543;79;99556;-81
2021/08/05 21:10:08;;;;;;;8.18;5.08;;;;;;;18.13;72.17;99670.93;21891058;78;99352;-82
2021/08/05 21:40:11;;;;;;;10.58;5.55;;;;;;;17.98;72.68;99663.48;22086908;78;99515;-81
2021/08/05 22:10:12;;;;;;;9.33;5.47;;;;;;;17.44;73.37;99633.52;22038811;78;99237;-81
2021/08/05 22:40:17;;;;;;;11.20;6.33;;;;;;;17.44;73.37;99633.52;21582430;79;101140;-82
2021/08/05 23:10:17;;;;;;;10.10;7.03;;;;;;;17.39;74.42;99636.84;21451746;78;99436;-80
2021/08/05 23:40:18;;;;;;;11.03;6.57;;;;;;;17.26;75.36;99620.08;21957478;78;99477;-83
